createdAt,value
2023-03-29T00:04:15.732Z,4.45
2023-03-29T00:09:13.965Z,4.46
2023-03-29T00:14:12.833Z,4.34
2023-03-29T00:19:09.483Z,4.30
2023-03-29T00:24:06.245Z,4.13
2023-03-29T00:29:02.667Z,4.02
2023-03-29T00:33:59.060Z,3.87
2023-03-29T00:38:56.497Z,3.96
2023-03-29T00:43:59.462Z,4.07
2023-03-29T00:49:13.180Z,4.19
2023-03-29T00:54:14.859Z,4.19
2023-03-29T00:59:15.510Z,4.24
2023-03-29T01:04:18.400Z,4.20
2023-03-29T01:09:18.208Z,4.17
2023-03-29T01:14:21.571Z,4.25
2023-03-29T01:19:21.657Z,4.29
2023-03-29T01:24:46.990Z,4.28
2023-03-29T01:29:57.154Z,4.25
2023-03-29T01:35:01.580Z,4.17
2023-03-29T01:39:57.998Z,4.15
2023-03-29T01:45:22.169Z,4.13
2023-03-29T01:50:45.823Z,4.00
2023-03-29T01:55:47.092Z,3.85
2023-03-29T02:00:45.156Z,3.79
2023-03-29T02:05:42.713Z,3.76
2023-03-29T02:10:39.758Z,3.71
2023-03-29T02:15:36.621Z,3.76
2023-03-29T02:20:39.306Z,3.80
2023-03-29T02:25:37.817Z,3.71
2023-03-29T02:30:46.335Z,3.59
2023-03-29T02:35:53.223Z,3.55
2023-03-29T02:40:49.685Z,3.65
2023-03-29T02:45:47.369Z,3.63
2023-03-29T02:50:47.207Z,3.61
2023-03-29T02:55:46.075Z,3.61
2023-03-29T03:00:46.365Z,3.62
2023-03-29T03:05:43.330Z,3.60
2023-03-29T03:10:39.777Z,3.53
2023-03-29T03:15:36.570Z,3.37
2023-03-29T03:20:33.352Z,3.26
2023-03-29T03:25:30.124Z,3.22
2023-03-29T03:30:27.385Z,3.21
2023-03-29T03:35:24.150Z,3.18
2023-03-29T03:40:20.714Z,3.22
2023-03-29T03:45:17.233Z,3.26
2023-03-29T03:50:13.916Z,3.26
2023-03-29T03:55:10.652Z,3.30
2023-03-29T04:00:17.202Z,3.31
2023-03-29T04:05:14.359Z,3.33
2023-03-29T04:10:11.118Z,3.33
2023-03-29T04:15:08.615Z,3.42
2023-03-29T04:20:12.257Z,3.44
2023-03-29T04:25:10.257Z,3.44
2023-03-29T04:30:07.363Z,3.47
2023-03-29T04:35:04.810Z,3.45
2023-03-29T04:40:01.347Z,3.44
2023-03-29T04:44:58.391Z,3.43
2023-03-29T04:49:55.508Z,3.40
2023-03-29T04:54:51.938Z,3.40
2023-03-29T04:59:48.379Z,3.41
2023-03-29T05:04:44.897Z,3.41
2023-03-29T05:09:41.702Z,3.39
2023-03-29T05:14:38.153Z,3.44
2023-03-29T05:19:36.366Z,3.47
2023-03-29T05:24:32.805Z,3.39
2023-03-29T05:29:29.219Z,3.48
2023-03-29T05:34:26.506Z,3.51
2023-03-29T05:39:23.299Z,3.59
2023-03-29T05:44:19.712Z,3.63
2023-03-29T05:49:16.449Z,3.73
2023-03-29T05:54:13.036Z,3.84
2023-03-29T05:59:09.490Z,3.85
2023-03-29T06:04:06.561Z,3.87
2023-03-29T06:09:03.932Z,3.86
2023-03-29T06:14:00.721Z,3.96
2023-03-29T06:18:57.216Z,4.05
2023-03-29T06:23:53.971Z,4.13
2023-03-29T06:28:52.270Z,4.31
2023-03-29T06:33:49.351Z,4.19
2023-03-29T06:38:45.934Z,4.21
2023-03-29T06:43:43.148Z,4.22
2023-03-29T06:48:40.975Z,4.29
2023-03-29T06:53:37.782Z,4.35
2023-03-29T06:58:34.519Z,4.45
2023-03-29T07:03:31.433Z,4.52
2023-03-29T07:08:31.508Z,4.58
2023-03-29T07:13:28.006Z,4.74
2023-03-29T07:18:24.423Z,4.76
2023-03-29T07:23:21.296Z,4.89
2023-03-29T07:28:18.490Z,4.95
2023-03-29T07:33:15.311Z,5.09
2023-03-29T07:38:11.945Z,5.28
2023-03-29T07:43:10.868Z,5.22
2023-03-29T07:48:08.339Z,5.38
2023-03-29T07:53:04.844Z,5.48
2023-03-29T07:58:01.499Z,5.59
2023-03-29T08:02:58.022Z,5.67
2023-03-29T08:07:55.023Z,5.67
2023-03-29T08:12:52.344Z,5.73
2023-03-29T08:17:49.005Z,5.79
2023-03-29T08:22:45.618Z,5.96
2023-03-29T08:27:43.221Z,6.03
2023-03-29T08:32:39.689Z,6.00
2023-03-29T08:37:37.430Z,6.28
2023-03-29T08:42:59.029Z,6.58
2023-03-29T08:48:12.569Z,6.70
2023-03-29T08:53:18.490Z,6.70
2023-03-29T08:58:19.179Z,6.83
2023-03-29T09:03:23.255Z,6.85
2023-03-29T09:08:22.350Z,7.01
2023-03-29T09:13:53.157Z,7.02
2023-03-29T09:19:01.924Z,7.26
2023-03-29T09:24:20.756Z,7.44
2023-03-29T09:29:45.393Z,7.44
2023-03-29T09:34:44.889Z,7.41
2023-03-29T09:39:41.321Z,7.55
2023-03-29T09:44:46.878Z,7.68
2023-03-29T09:49:47.803Z,7.89
2023-03-29T09:54:44.553Z,8.40
2023-03-29T09:59:41.031Z,8.62
2023-03-29T10:04:38.482Z,8.45
2023-03-29T10:09:35.332Z,8.51
2023-03-29T10:14:41.150Z,8.33
2023-03-29T10:19:37.595Z,8.25
2023-03-29T10:24:34.008Z,8.38
2023-03-29T10:29:43.283Z,8.17
2023-03-29T10:34:39.710Z,8.09
2023-03-29T10:39:36.614Z,8.34
2023-03-29T10:44:36.470Z,8.58
2023-03-29T10:49:44.429Z,9.11
2023-03-29T10:54:41.368Z,9.04
2023-03-29T10:59:51.098Z,8.83
2023-03-29T11:05:07.038Z,8.53
2023-03-29T11:10:41.228Z,8.72
2023-03-29T11:16:00.836Z,8.60
2023-03-29T11:21:16.259Z,8.57
2023-03-29T11:26:24.614Z,8.61
2023-03-29T11:31:21.118Z,8.43
2023-03-29T11:36:32.644Z,8.47
2023-03-29T11:41:34.978Z,8.42
2023-03-29T11:46:51.987Z,8.28
2023-03-29T11:51:51.895Z,8.18
2023-03-29T11:56:55.761Z,8.17
2023-03-29T12:01:56.385Z,8.58
2023-03-29T12:07:13.468Z,8.55
2023-03-29T12:12:24.943Z,8.49
2023-03-29T12:17:28.225Z,8.48
2023-03-29T12:22:24.819Z,8.23
2023-03-29T12:27:46.729Z,8.37
2023-03-29T12:33:08.987Z,8.71
2023-03-29T12:38:15.057Z,8.68
2023-03-29T12:43:23.269Z,8.69
2023-03-29T12:48:27.159Z,8.55
2023-03-29T12:53:36.798Z,8.61
2023-03-29T12:58:39.305Z,9.19
2023-03-29T13:03:48.232Z,9.73
2023-03-29T13:08:45.037Z,9.73
2023-03-29T13:13:43.079Z,9.55
2023-03-29T13:18:54.497Z,9.56
2023-03-29T13:24:13.739Z,9.68
2023-03-29T13:29:19.758Z,9.76
2023-03-29T13:34:35.260Z,9.68
2023-03-29T13:39:36.777Z,10.01
2023-03-29T13:44:48.757Z,10.13
2023-03-29T13:49:54.345Z,10.18
2023-03-29T13:55:08.628Z,11.30
2023-03-29T14:00:13.539Z,11.37
2023-03-29T14:05:14.873Z,10.76
2023-03-29T14:10:17.815Z,10.85
2023-03-29T14:15:21.902Z,10.70
2023-03-29T14:20:19.034Z,10.36
2023-03-29T14:25:19.244Z,10.48
2023-03-29T14:30:21.788Z,10.18
2023-03-29T14:35:18.295Z,10.11
2023-03-29T14:40:21.063Z,9.95
2023-03-29T14:45:23.166Z,9.81
2023-03-29T14:50:26.248Z,9.71
2023-03-29T14:55:23.991Z,9.55
2023-03-29T15:00:43.983Z,9.57
2023-03-29T15:05:43.966Z,9.38
2023-03-29T15:10:42.923Z,9.36
2023-03-29T15:15:40.891Z,9.38
2023-03-29T15:20:39.627Z,9.42
2023-03-29T15:25:38.490Z,9.46
2023-03-29T15:30:45.068Z,9.55
2023-03-29T15:35:51.171Z,9.60
2023-03-29T15:40:48.349Z,9.67
2023-03-29T15:45:46.658Z,9.77
2023-03-29T15:50:45.165Z,9.76
2023-03-29T15:55:45.017Z,9.80
2023-03-29T16:00:44.351Z,9.78
2023-03-29T16:05:44.044Z,9.75
2023-03-29T16:10:43.716Z,9.80
2023-03-29T16:15:42.172Z,9.89
2023-03-29T16:20:38.754Z,9.96
2023-03-29T16:25:37.986Z,10.00
2023-03-29T16:30:36.653Z,9.98
2023-03-29T16:35:35.835Z,10.01
2023-03-29T16:40:33.209Z,9.93
2023-03-29T16:45:29.705Z,9.89
2023-03-29T16:50:26.381Z,9.89
2023-03-29T16:55:22.909Z,9.89
2023-03-29T17:00:20.250Z,9.86
2023-03-29T17:05:18.365Z,9.86
2023-03-29T17:10:15.382Z,9.85
2023-03-29T17:15:11.871Z,9.83
2023-03-29T17:20:11.756Z,9.81
2023-03-29T17:25:08.772Z,9.79
2023-03-29T17:30:06.573Z,9.74
2023-03-29T17:35:03.849Z,9.73
2023-03-29T17:40:00.778Z,9.66
2023-03-29T17:44:57.259Z,9.67
2023-03-29T17:49:53.727Z,9.71
2023-03-29T17:54:50.425Z,9.66
2023-03-29T17:59:48.105Z,9.66
2023-03-29T18:04:45.180Z,9.66
2023-03-29T18:09:41.696Z,9.66
2023-03-29T18:14:38.193Z,9.70
2023-03-29T18:19:34.726Z,9.71
2023-03-29T18:24:31.255Z,9.65
2023-03-29T18:29:27.770Z,9.59
2023-03-29T18:34:24.225Z,9.55
2023-03-29T18:39:20.682Z,9.51
2023-03-29T18:44:17.221Z,9.47
2023-03-29T18:49:13.906Z,9.43
2023-03-29T18:54:12.188Z,9.40
2023-03-29T18:59:09.021Z,9.38
2023-03-29T19:04:05.676Z,9.32
2023-03-29T19:09:05.927Z,9.35
2023-03-29T19:14:05.069Z,9.29
2023-03-29T19:19:02.367Z,9.23
2023-03-29T19:24:01.082Z,9.21
2023-03-29T19:29:00.960Z,9.17
2023-03-29T19:33:57.715Z,9.16
2023-03-29T19:38:58.865Z,9.14
2023-03-29T19:43:55.319Z,9.11
2023-03-29T19:48:55.465Z,9.08
2023-03-29T19:53:52.655Z,9.09
2023-03-29T19:58:52.757Z,9.14
2023-03-29T20:03:49.887Z,9.12
2023-03-29T20:08:47.490Z,9.11
2023-03-29T20:13:45.125Z,9.02
2023-03-29T20:18:44.586Z,8.98
2023-03-29T20:23:41.141Z,8.99
2023-03-29T20:28:37.579Z,8.99
2023-03-29T20:33:34.512Z,9.01
2023-03-29T20:38:31.404Z,8.98
2023-03-29T20:43:29.879Z,8.98
2023-03-29T20:48:32.560Z,8.95
2023-03-29T20:53:35.130Z,8.89
2023-03-29T20:58:32.079Z,8.88
2023-03-29T21:03:28.545Z,8.87
2023-03-29T21:08:28.766Z,8.85
2023-03-29T21:13:25.241Z,8.86
2023-03-29T21:18:23.253Z,8.82
2023-03-29T21:23:19.818Z,8.78
2023-03-29T21:28:16.512Z,8.83
2023-03-29T21:33:12.924Z,8.85
2023-03-29T21:38:09.372Z,8.81
2023-03-29T21:43:06.087Z,8.84
2023-03-29T21:48:02.497Z,8.83
2023-03-29T21:52:58.997Z,8.79
2023-03-29T21:57:55.800Z,8.76
2023-03-29T22:02:52.719Z,8.77
2023-03-29T22:07:50.362Z,8.75
2023-03-29T22:12:48.708Z,8.74
2023-03-29T22:17:45.626Z,8.75
2023-03-29T22:22:54.672Z,8.73
2023-03-29T22:27:52.831Z,8.74
2023-03-29T22:32:49.311Z,8.70
2023-03-29T22:37:47.971Z,8.71
2023-03-29T22:42:44.407Z,8.73
2023-03-29T22:47:40.925Z,8.76
2023-03-29T22:52:37.372Z,8.73
2023-03-29T22:57:33.752Z,8.70
2023-03-29T23:02:30.344Z,8.74
2023-03-29T23:07:28.067Z,8.68
2023-03-29T23:12:27.627Z,8.71
2023-03-29T23:17:25.973Z,8.63
2023-03-29T23:22:22.636Z,8.64
2023-03-29T23:27:19.886Z,8.68
2023-03-29T23:32:16.454Z,8.71
2023-03-29T23:43:03.870Z,8.64
2023-03-29T23:48:00.311Z,8.64
2023-03-29T23:52:58.555Z,8.63
2023-03-29T23:57:55.024Z,8.56
